Terminal Aerodrome Forecast
Issued by NWS

Current Version | Previous Version | Text Only | Print | Product List | Glossary On
Versions: 1 2 3 4 5 6 7 8 9 10 11 12 13 14 15 16 17 18 19 20 21 22 23 24 25 26
000
FTUS42 KCAE 070800 AAA
TAFOGB
TAF AMD
KOGB 070832Z 0709/0806 01005KT P6SM OVC250
     FM071300 02010KT P6SM SCT100 OVC250
     FM071700 01012G20KT P6SM BKN100 OVC250
     FM072200 01010KT P6SM BKN050 OVC100=

USA.gov is the U.S. government's official web portal to all federal, state and local government web resources and services.